sensor_id;sensor_type;location;lat;lon;timestamp;temperature;humidity
66740;DHT22;53653;52.188;8.602;2022-09-01T05:45:09;14.34;70.90
66740;DHT22;53653;52.188;8.602;2022-09-01T05:47:37;14.38;70.82
66740;DHT22;53653;52.188;8.602;2022-09-01T05:50:05;14.43;70.91
66740;DHT22;53653;52.188;8.602;2022-09-01T05:52:36;14.56;70.55
66740;DHT22;53653;52.188;8.602;2022-09-01T05:55:04;14.61;70.23
66740;DHT22;53653;52.188;8.602;2022-09-01T05:57:34;14.81;69.49
66740;DHT22;53653;52.188;8.602;2022-09-01T05:59:59;14.64;70.15
66740;DHT22;53653;52.188;8.602;2022-09-01T06:02:26;14.60;70.73
66740;DHT22;53653;52.188;8.602;2022-09-01T06:04:52;14.75;70.32
66740;DHT22;53653;52.188;8.602;2022-09-01T06:07:21;14.95;69.76
66740;DHT22;53653;52.188;8.602;2022-09-01T06:09:48;14.88;69.76
66740;DHT22;53653;52.188;8.602;2022-09-01T06:12:15;14.94;69.76
66740;DHT22;53653;52.188;8.602;2022-09-01T06:14:49;14.98;69.59
66740;DHT22;53653;52.188;8.602;2022-09-01T06:17:16;15.19;68.63
66740;DHT22;53653;52.188;8.602;2022-09-01T06:19:43;15.56;67.79
66740;DHT22;53653;52.188;8.602;2022-09-01T06:22:09;15.86;66.80
66740;DHT22;53653;52.188;8.602;2022-09-01T06:24:36;16.12;66.07
66740;DHT22;53653;52.188;8.602;2022-09-01T06:27:05;15.91;66.39
66740;DHT22;53653;52.188;8.602;2022-09-01T06:29:37;15.91;67.04
66740;DHT22;53653;52.188;8.602;2022-09-01T06:32:07;15.79;67.02
66740;DHT22;53653;52.188;8.602;2022-09-01T06:34:35;15.94;66.60
66740;DHT22;53653;52.188;8.602;2022-09-01T06:37:02;15.86;67.45
66740;DHT22;53653;52.188;8.602;2022-09-01T06:39:28;16.24;66.09
66740;DHT22;53653;52.188;8.602;2022-09-01T06:41:55;16.33;65.81
66740;DHT22;53653;52.188;8.602;2022-09-01T06:44:22;16.22;66.26
66740;DHT22;53653;52.188;8.602;2022-09-01T06:46:48;16.39;65.65
66740;DHT22;53653;52.188;8.602;2022-09-01T06:49:14;16.80;64.64
66740;DHT22;53653;52.188;8.602;2022-09-01T06:51:39;17.11;64.05
66740;DHT22;53653;52.188;8.602;2022-09-01T06:54:05;17.18;63.59
66740;DHT22;53653;52.188;8.602;2022-09-01T06:56:31;17.44;62.66
66740;DHT22;53653;52.188;8.602;2022-09-01T06:58:59;17.20;63.58
66740;DHT22;53653;52.188;8.602;2022-09-01T07:01:26;17.21;63.44
66740;DHT22;53653;52.188;8.602;2022-09-01T07:03:53;17.30;63.26
66740;DHT22;53653;52.188;8.602;2022-09-01T07:06:20;17.44;62.78
66740;DHT22;53653;52.188;8.602;2022-09-01T07:08:58;17.28;63.47
66740;DHT22;53653;52.188;8.602;2022-09-01T07:11:27;17.58;63.20
66740;DHT22;53653;52.188;8.602;2022-09-01T07:13:58;17.76;62.40
66740;DHT22;53653;52.188;8.602;2022-09-01T07:16:28;17.56;62.48
66740;DHT22;53653;52.188;8.602;2022-09-01T07:18:56;17.45;63.17
66740;DHT22;53653;52.188;8.602;2022-09-01T07:21:24;17.95;62.47
66740;DHT22;53653;52.188;8.602;2022-09-01T07:23:49;18.07;61.73
66740;DHT22;53653;52.188;8.602;2022-09-01T07:26:15;17.76;62.06
66740;DHT22;53653;52.188;8.602;2022-09-01T07:28:48;17.89;62.28
66740;DHT22;53653;52.188;8.602;2022-09-01T07:31:27;18.07;61.19
66740;DHT22;53653;52.188;8.602;2022-09-01T07:33:55;18.41;60.73
66740;DHT22;53653;52.188;8.602;2022-09-01T07:36:23;18.18;60.31
66740;DHT22;53653;52.188;8.602;2022-09-01T07:38:49;18.27;60.11
66740;DHT22;53653;52.188;8.602;2022-09-01T07:41:25;18.34;60.80
66740;DHT22;53653;52.188;8.602;2022-09-01T07:43:51;18.26;60.49
66740;DHT22;53653;52.188;8.602;2022-09-01T07:46:19;18.18;60.26
66740;DHT22;53653;52.188;8.602;2022-09-01T07:48:45;18.14;60.74
66740;DHT22;53653;52.188;8.602;2022-09-01T07:51:13;18.18;60.10
66740;DHT22;53653;52.188;8.602;2022-09-01T07:53:44;18.55;59.90
66740;DHT22;53653;52.188;8.602;2022-09-01T07:56:13;18.34;59.99
66740;DHT22;53653;52.188;8.602;2022-09-01T07:58:39;18.98;58.20
66740;DHT22;53653;52.188;8.602;2022-09-01T08:01:11;18.72;58.75
66740;DHT22;53653;52.188;8.602;2022-09-01T08:03:38;18.62;59.36
66740;DHT22;53653;52.188;8.602;2022-09-01T08:06:10;18.99;58.36
66740;DHT22;53653;52.188;8.602;2022-09-01T08:08:38;19.23;57.47
66740;DHT22;53653;52.188;8.602;2022-09-01T08:11:04;19.36;57.15
66740;DHT22;53653;52.188;8.602;2022-09-01T08:13:32;19.45;56.80
66740;DHT22;53653;52.188;8.602;2022-09-01T08:15:57;19.47;57.09
66740;DHT22;53653;52.188;8.602;2022-09-01T08:18:23;19.92;55.74
66740;DHT22;53653;52.188;8.602;2022-09-01T08:20:49;19.68;56.22
66740;DHT22;53653;52.188;8.602;2022-09-01T08:23:17;19.94;55.57
66740;DHT22;53653;52.188;8.602;2022-09-01T08:25:44;19.70;55.94
66740;DHT22;53653;52.188;8.602;2022-09-01T08:28:11;19.57;56.34
66740;DHT22;53653;52.188;8.602;2022-09-01T08:30:39;19.85;56.25
66740;DHT22;53653;52.188;8.602;2022-09-01T08:33:05;20.11;54.71
66740;DHT22;53653;52.188;8.602;2022-09-01T08:35:30;20.49;54.38
66740;DHT22;53653;52.188;8.602;2022-09-01T08:37:57;20.55;53.95
66740;DHT22;53653;52.188;8.602;2022-09-01T08:40:23;20.30;54.24
66740;DHT22;53653;52.188;8.602;2022-09-01T08:45:45;20.65;53.16
66740;DHT22;53653;52.188;8.602;2022-09-01T08:48:39;21.03;52.60
66740;DHT22;53653;52.188;8.602;2022-09-01T08:51:17;21.42;52.56
66740;DHT22;53653;52.188;8.602;2022-09-01T08:54:18;20.90;53.11
66740;DHT22;53653;52.188;8.602;2022-09-01T08:56:49;21.42;52.35
66740;DHT22;53653;52.188;8.602;2022-09-01T08:59:18;21.53;52.03
66740;DHT22;53653;52.188;8.602;2022-09-01T09:02:20;21.35;52.17
66740;DHT22;53653;52.188;8.602;2022-09-01T09:05:08;21.08;52.60
66740;DHT22;53653;52.188;8.602;2022-09-01T09:13:53;21.11;51.22
66740;DHT22;53653;52.188;8.602;2022-09-01T09:16:27;21.67;50.12
66740;DHT22;53653;52.188;8.602;2022-09-01T09:19:02;21.10;51.72
66740;DHT22;53653;52.188;8.602;2022-09-01T09:21:39;21.49;50.63
66740;DHT22;53653;52.188;8.602;2022-09-01T09:26:37;21.96;49.38
66740;DHT22;53653;52.188;8.602;2022-09-01T09:29:03;22.00;49.78
66740;DHT22;53653;52.188;8.602;2022-09-01T09:31:37;22.24;49.59
66740;DHT22;53653;52.188;8.602;2022-09-01T09:36:51;21.94;49.89
66740;DHT22;53653;52.188;8.602;2022-09-01T09:39:17;22.06;49.58
66740;DHT22;53653;52.188;8.602;2022-09-01T09:42:10;21.83;49.40
66740;DHT22;53653;52.188;8.602;2022-09-01T09:44:44;22.03;49.12
66740;DHT22;53653;52.188;8.602;2022-09-01T09:47:43;21.97;49.16
66740;DHT22;53653;52.188;8.602;2022-09-01T09:50:25;22.28;48.91
66740;DHT22;53653;52.188;8.602;2022-09-01T09:55:36;22.54;48.41
66740;DHT22;53653;52.188;8.602;2022-09-01T09:58:14;22.52;48.59
66740;DHT22;53653;52.188;8.602;2022-09-01T10:00:57;23.02;47.17
66740;DHT22;53653;52.188;8.602;2022-09-01T10:03:34;23.57;46.10
66740;DHT22;53653;52.188;8.602;2022-09-01T10:06:00;22.67;46.83
66740;DHT22;53653;52.188;8.602;2022-09-01T10:10:53;23.33;45.98
66740;DHT22;53653;52.188;8.602;2022-09-01T10:13:22;23.16;45.14
66740;DHT22;53653;52.188;8.602;2022-09-01T10:15:51;23.42;44.76
66740;DHT22;53653;52.188;8.602;2022-09-01T10:18:21;23.02;44.81
66740;DHT22;53653;52.188;8.602;2022-09-01T10:20:59;22.09;46.29
66740;DHT22;53653;52.188;8.602;2022-09-01T10:23:27;22.20;45.92
66740;DHT22;53653;52.188;8.602;2022-09-01T10:26:00;23.23;43.03
66740;DHT22;53653;52.188;8.602;2022-09-01T10:28:27;23.64;41.32
66740;DHT22;53653;52.188;8.602;2022-09-01T10:30:56;23.27;42.10
66740;DHT22;53653;52.188;8.602;2022-09-01T10:33:24;23.31;41.47
66740;DHT22;53653;52.188;8.602;2022-09-01T10:35:51;22.85;41.58
66740;DHT22;53653;52.188;8.602;2022-09-01T10:38:27;23.16;40.79
66740;DHT22;53653;52.188;8.602;2022-09-01T10:40:55;23.46;40.43
66740;DHT22;53653;52.188;8.602;2022-09-01T10:48:52;23.63;43.85
66740;DHT22;53653;52.188;8.602;2022-09-01T11:06:57;22.28;45.07
66740;DHT22;53653;52.188;8.602;2022-09-01T11:09:37;22.61;45.55
66740;DHT22;53653;52.188;8.602;2022-09-01T11:17:57;23.77;42.21
66740;DHT22;53653;52.188;8.602;2022-09-01T11:25:43;23.89;36.25
66740;DHT22;53653;52.188;8.602;2022-09-01T11:30:48;23.73;37.25
66740;DHT22;53653;52.188;8.602;2022-09-01T11:36:04;23.78;37.93
66740;DHT22;53653;52.188;8.602;2022-09-01T11:38:41;24.23;37.14
66740;DHT22;53653;52.188;8.602;2022-09-01T11:41:53;24.33;37.21
66740;DHT22;53653;52.188;8.602;2022-09-01T11:44:24;24.48;37.58
66740;DHT22;53653;52.188;8.602;2022-09-01T11:46:51;24.16;35.80
66740;DHT22;53653;52.188;8.602;2022-09-01T11:49:29;24.09;33.30
66740;DHT22;53653;52.188;8.602;2022-09-01T11:51:58;23.86;35.98
66740;DHT22;53653;52.188;8.602;2022-09-01T11:54:28;23.84;38.02
66740;DHT22;53653;52.188;8.602;2022-09-01T11:57:20;24.40;35.12
66740;DHT22;53653;52.188;8.602;2022-09-01T11:59:46;24.44;34.56
66740;DHT22;53653;52.188;8.602;2022-09-01T12:02:27;24.33;33.97
66740;DHT22;53653;52.188;8.602;2022-09-01T12:04:55;24.69;34.03
66740;DHT22;53653;52.188;8.602;2022-09-01T12:07:39;24.74;35.20
66740;DHT22;53653;52.188;8.602;2022-09-01T12:10:16;23.49;39.39
66740;DHT22;53653;52.188;8.602;2022-09-01T12:12:43;23.10;40.29
66740;DHT22;53653;52.188;8.602;2022-09-01T12:15:18;22.52;40.19
66740;DHT22;53653;52.188;8.602;2022-09-01T12:17:44;22.33;40.18
66740;DHT22;53653;52.188;8.602;2022-09-01T12:20:36;22.44;39.91
66740;DHT22;53653;52.188;8.602;2022-09-01T12:23:28;22.49;39.72
66740;DHT22;53653;52.188;8.602;2022-09-01T12:25:56;22.44;39.69
66740;DHT22;53653;52.188;8.602;2022-09-01T12:28:24;22.59;39.21
66740;DHT22;53653;52.188;8.602;2022-09-01T12:30:51;22.86;38.26
66740;DHT22;53653;52.188;8.602;2022-09-01T12:33:18;23.06;36.39
66740;DHT22;53653;52.188;8.602;2022-09-01T12:35:45;23.71;34.14
66740;DHT22;53653;52.188;8.602;2022-09-01T12:40:47;24.42;32.34
66740;DHT22;53653;52.188;8.602;2022-09-01T12:43:46;24.16;32.89
66740;DHT22;53653;52.188;8.602;2022-09-01T12:46:39;23.85;33.72
66740;DHT22;53653;52.188;8.602;2022-09-01T12:49:16;23.33;34.46
66740;DHT22;53653;52.188;8.602;2022-09-01T12:51:42;23.26;35.47
66740;DHT22;53653;52.188;8.602;2022-09-01T12:54:13;23.55;35.23
66740;DHT22;53653;52.188;8.602;2022-09-01T12:56:39;24.00;34.48
66740;DHT22;53653;52.188;8.602;2022-09-01T12:59:13;24.06;34.21
66740;DHT22;53653;52.188;8.602;2022-09-01T13:01:40;24.00;34.60
66740;DHT22;53653;52.188;8.602;2022-09-01T13:07:05;24.43;33.92
66740;DHT22;53653;52.188;8.602;2022-09-01T13:09:31;24.88;32.85
66740;DHT22;53653;52.188;8.602;2022-09-01T13:12:15;24.53;32.42
66740;DHT22;53653;52.188;8.602;2022-09-01T13:14:41;23.77;32.96
66740;DHT22;53653;52.188;8.602;2022-09-01T13:17:06;23.22;33.99
66740;DHT22;53653;52.188;8.602;2022-09-01T13:19:32;23.39;34.19
66740;DHT22;53653;52.188;8.602;2022-09-01T13:21:57;23.77;33.65
66740;DHT22;53653;52.188;8.602;2022-09-01T13:24:23;24.08;33.16
66740;DHT22;53653;52.188;8.602;2022-09-01T13:26:48;24.37;33.45
66740;DHT22;53653;52.188;8.602;2022-09-01T13:29:20;24.19;33.00
66740;DHT22;53653;52.188;8.602;2022-09-01T13:31:45;24.32;32.20
66740;DHT22;53653;52.188;8.602;2022-09-01T13:34:11;24.12;32.87
66740;DHT22;53653;52.188;8.602;2022-09-01T13:36:36;24.11;32.92
66740;DHT22;53653;52.188;8.602;2022-09-01T13:39:01;23.85;33.31
66740;DHT22;53653;52.188;8.602;2022-09-01T13:41:27;23.70;33.30
66740;DHT22;53653;52.188;8.602;2022-09-01T13:43:53;24.04;32.99
66740;DHT22;53653;52.188;8.602;2022-09-01T13:46:20;24.15;33.45
66740;DHT22;53653;52.188;8.602;2022-09-01T13:48:45;23.88;33.40
66740;DHT22;53653;52.188;8.602;2022-09-01T13:51:11;23.64;34.14
66740;DHT22;53653;52.188;8.602;2022-09-01T13:53:36;23.57;33.74
66740;DHT22;53653;52.188;8.602;2022-09-01T13:56:02;24.09;33.23
66740;DHT22;53653;52.188;8.602;2022-09-01T13:58:28;24.11;33.18
66740;DHT22;53653;52.188;8.602;2022-09-01T14:00:53;24.18;32.30
66740;DHT22;53653;52.188;8.602;2022-09-01T14:03:22;24.39;32.64
66740;DHT22;53653;52.188;8.602;2022-09-01T14:05:48;24.28;33.06
66740;DHT22;53653;52.188;8.602;2022-09-01T14:08:16;23.98;33.26
66740;DHT22;53653;52.188;8.602;2022-09-01T14:10:47;23.89;33.33
66740;DHT22;53653;52.188;8.602;2022-09-01T14:13:15;24.15;33.69
66740;DHT22;53653;52.188;8.602;2022-09-01T14:15:41;24.26;33.01
66740;DHT22;53653;52.188;8.602;2022-09-01T14:18:06;24.11;33.35
66740;DHT22;53653;52.188;8.602;2022-09-01T14:20:35;23.75;34.11
66740;DHT22;53653;52.188;8.602;2022-09-01T14:23:03;23.98;34.09
66740;DHT22;53653;52.188;8.602;2022-09-01T14:25:29;23.85;34.08
66740;DHT22;53653;52.188;8.602;2022-09-01T14:27:55;23.37;34.47
66740;DHT22;53653;52.188;8.602;2022-09-01T14:30:23;23.78;34.26
66740;DHT22;53653;52.188;8.602;2022-09-01T14:32:49;23.94;33.72
66740;DHT22;53653;52.188;8.602;2022-09-01T14:35:17;24.33;33.45
66740;DHT22;53653;52.188;8.602;2022-09-01T14:37:43;23.92;33.90
66740;DHT22;53653;52.188;8.602;2022-09-01T14:40:10;23.98;33.71
66740;DHT22;53653;52.188;8.602;2022-09-01T14:42:37;23.60;33.75
66740;DHT22;53653;52.188;8.602;2022-09-01T14:45:04;23.37;34.49
66740;DHT22;53653;52.188;8.602;2022-09-01T14:47:30;23.65;34.14
66740;DHT22;53653;52.188;8.602;2022-09-01T14:49:56;23.79;33.58
66740;DHT22;53653;52.188;8.602;2022-09-01T14:52:21;23.86;33.78
66740;DHT22;53653;52.188;8.602;2022-09-01T14:54:47;23.82;33.61
66740;DHT22;53653;52.188;8.602;2022-09-01T14:57:14;23.81;33.97
66740;DHT22;53653;52.188;8.602;2022-09-01T14:59:40;23.89;34.13
66740;DHT22;53653;52.188;8.602;2022-09-01T15:02:07;23.95;34.12
66740;DHT22;53653;52.188;8.602;2022-09-01T15:04:33;23.81;34.48
66740;DHT22;53653;52.188;8.602;2022-09-01T15:06:59;23.92;33.93
66740;DHT22;53653;52.188;8.602;2022-09-01T15:09:28;24.08;33.99
66740;DHT22;53653;52.188;8.602;2022-09-01T15:11:54;23.81;34.48
66740;DHT22;53653;52.188;8.602;2022-09-01T15:14:19;23.82;33.75
66740;DHT22;53653;52.188;8.602;2022-09-01T15:16:44;23.78;33.72
66740;DHT22;53653;52.188;8.602;2022-09-01T15:19:12;24.00;33.26
66740;DHT22;53653;52.188;8.602;2022-09-01T15:21:39;23.54;33.88
66740;DHT22;53653;52.188;8.602;2022-09-01T15:24:07;23.67;33.81
66740;DHT22;53653;52.188;8.602;2022-09-01T15:26:33;23.58;33.66
66740;DHT22;53653;52.188;8.602;2022-09-01T15:28:59;23.68;33.54
66740;DHT22;53653;52.188;8.602;2022-09-01T15:31:27;23.85;33.68
66740;DHT22;53653;52.188;8.602;2022-09-01T15:33:55;23.89;33.90
66740;DHT22;53653;52.188;8.602;2022-09-01T15:36:23;23.78;33.43
66740;DHT22;53653;52.188;8.602;2022-09-01T15:38:49;23.89;33.27
66740;DHT22;53653;52.188;8.602;2022-09-01T15:41:19;23.85;33.71
66740;DHT22;53653;52.188;8.602;2022-09-01T15:43:44;23.73;33.95
66740;DHT22;53653;52.188;8.602;2022-09-01T15:46:10;23.86;33.56
66740;DHT22;53653;52.188;8.602;2022-09-01T15:48:36;23.89;33.41
66740;DHT22;53653;52.188;8.602;2022-09-01T15:53:42;24.02;33.31
66740;DHT22;53653;52.188;8.602;2022-09-01T15:56:07;23.91;33.60
66740;DHT22;53653;52.188;8.602;2022-09-01T15:58:33;24.16;33.58
66740;DHT22;53653;52.188;8.602;2022-09-01T16:00:59;23.91;33.44
66740;DHT22;53653;52.188;8.602;2022-09-01T16:03:24;23.88;33.85
66740;DHT22;53653;52.188;8.602;2022-09-01T16:05:50;23.49;33.83
66740;DHT22;53653;52.188;8.602;2022-09-01T16:08:15;23.84;33.70
66740;DHT22;53653;52.188;8.602;2022-09-01T16:10:41;23.89;33.05
66740;DHT22;53653;52.188;8.602;2022-09-01T16:13:07;24.05;33.16
66740;DHT22;53653;52.188;8.602;2022-09-01T16:15:32;24.25;32.83
66740;DHT22;53653;52.188;8.602;2022-09-01T16:23:23;23.24;34.43
66740;DHT22;53653;52.188;8.602;2022-09-01T16:25:49;23.12;34.70
66740;DHT22;53653;52.188;8.602;2022-09-01T16:28:23;23.07;35.22
66740;DHT22;53653;52.188;8.602;2022-09-01T16:30:51;23.20;34.96
66740;DHT22;53653;52.188;8.602;2022-09-01T16:33:17;23.27;35.05
66740;DHT22;53653;52.188;8.602;2022-09-01T16:41:30;22.94;35.44
66740;DHT22;53653;52.188;8.602;2022-09-01T16:46:36;22.84;35.56
66740;DHT22;53653;52.188;8.602;2022-09-01T16:49:19;22.79;35.61
66740;DHT22;53653;52.188;8.602;2022-09-01T16:54:42;22.59;35.97
66740;DHT22;53653;52.188;8.602;2022-09-01T16:57:36;22.71;35.80
66740;DHT22;53653;52.188;8.602;2022-09-01T17:00:09;22.28;36.63
66740;DHT22;53653;52.188;8.602;2022-09-01T17:05:55;22.48;36.57
66740;DHT22;53653;52.188;8.602;2022-09-01T17:08:25;22.44;36.54
66740;DHT22;53653;52.188;8.602;2022-09-01T17:10:56;22.52;36.51
66740;DHT22;53653;52.188;8.602;2022-09-01T17:13:44;22.33;37.07
66740;DHT22;53653;52.188;8.602;2022-09-01T17:19:13;22.04;38.15
66740;DHT22;53653;52.188;8.602;2022-09-01T17:26:55;21.94;38.64
66740;DHT22;53653;52.188;8.602;2022-09-01T17:29:28;21.90;38.90
66740;DHT22;53653;52.188;8.602;2022-09-01T17:40:27;21.65;39.34
66740;DHT22;53653;52.188;8.602;2022-09-01T17:43:07;21.63;39.45
66740;DHT22;53653;52.188;8.602;2022-09-01T17:45:50;21.61;39.70
66740;DHT22;53653;52.188;8.602;2022-09-01T17:48:28;21.55;39.80
66740;DHT22;53653;52.188;8.602;2022-09-01T17:54:14;21.39;39.85
66740;DHT22;53653;52.188;8.602;2022-09-01T17:59:23;21.22;39.95
66740;DHT22;53653;52.188;8.602;2022-09-01T18:04:51;21.05;40.24
66740;DHT22;53653;52.188;8.602;2022-09-01T18:09:57;20.91;40.57
66740;DHT22;53653;52.188;8.602;2022-09-01T18:12:32;20.94;40.67
66740;DHT22;53653;52.188;8.602;2022-09-01T18:15:10;20.81;40.84
66740;DHT22;53653;52.188;8.602;2022-09-01T18:20:25;20.59;41.31
66740;DHT22;53653;52.188;8.602;2022-09-01T18:23:03;20.59;41.44
66740;DHT22;53653;52.188;8.602;2022-09-01T18:25:46;20.55;41.61
66740;DHT22;53653;52.188;8.602;2022-09-01T18:28:14;20.46;41.72
66740;DHT22;53653;52.188;8.602;2022-09-01T18:34:04;20.32;42.07
66740;DHT22;53653;52.188;8.602;2022-09-01T18:38:57;20.15;42.55
66740;DHT22;53653;52.188;8.602;2022-09-01T18:52:43;19.84;43.63
66740;DHT22;53653;52.188;8.602;2022-09-01T18:57:56;19.77;43.85
66740;DHT22;53653;52.188;8.602;2022-09-01T19:00:44;19.67;43.94
66740;DHT22;53653;52.188;8.602;2022-09-01T19:03:28;19.61;44.15
66740;DHT22;53653;52.188;8.602;2022-09-01T19:11:57;19.31;44.72
66740;DHT22;53653;52.188;8.602;2022-09-01T19:20:06;19.15;45.12
66740;DHT22;53653;52.188;8.602;2022-09-01T19:25:18;18.99;45.37
66740;DHT22;53653;52.188;8.602;2022-09-01T19:28:20;18.96;45.56
66740;DHT22;53653;52.188;8.602;2022-09-01T19:33:40;18.79;46.06
66740;DHT22;53653;52.188;8.602;2022-09-01T19:36:09;18.72;46.29
66740;DHT22;53653;52.188;8.602;2022-09-01T19:38:35;18.71;46.21
66740;DHT22;53653;52.188;8.602;2022-09-01T19:41:28;18.65;46.52
66740;DHT22;53653;52.188;8.602;2022-09-01T19:44:04;18.57;46.68
66740;DHT22;53653;52.188;8.602;2022-09-01T19:47:02;18.45;46.93
66740;DHT22;53653;52.188;8.602;2022-09-01T19:54:56;18.29;47.20
66740;DHT22;53653;52.188;8.602;2022-09-01T19:58:07;18.24;47.31
66740;DHT22;53653;52.188;8.602;2022-09-01T20:00:26;18.22;47.45
66740;DHT22;53653;52.188;8.602;2022-09-01T20:02:59;18.14;47.61
66740;DHT22;53653;52.188;8.602;2022-09-01T20:05:30;18.12;47.80
66740;DHT22;53653;52.188;8.602;2022-09-01T20:10:52;17.92;48.12
66740;DHT22;53653;52.188;8.602;2022-09-01T20:16:09;17.85;48.25
66740;DHT22;53653;52.188;8.602;2022-09-01T20:18:45;17.79;48.56
66740;DHT22;53653;52.188;8.602;2022-09-01T20:21:11;17.78;48.53
66740;DHT22;53653;52.188;8.602;2022-09-01T20:23:58;17.74;48.66
66740;DHT22;53653;52.188;8.602;2022-09-01T20:26:30;17.74;48.85
66740;DHT22;53653;52.188;8.602;2022-09-01T20:29:00;17.72;48.91
66740;DHT22;53653;52.188;8.602;2022-09-01T20:31:31;17.62;49.15
66740;DHT22;53653;52.188;8.602;2022-09-01T20:34:21;17.49;49.55
66740;DHT22;53653;52.188;8.602;2022-09-01T20:36:53;17.49;49.69
66740;DHT22;53653;52.188;8.602;2022-09-01T20:42:26;17.34;50.11
66740;DHT22;53653;52.188;8.602;2022-09-01T20:44:58;17.24;50.23
66740;DHT22;53653;52.188;8.602;2022-09-01T20:47:27;17.24;50.36
66740;DHT22;53653;52.188;8.602;2022-09-01T20:49:53;17.17;50.49
66740;DHT22;53653;52.188;8.602;2022-09-01T20:55:13;17.16;50.50
66740;DHT22;53653;52.188;8.602;2022-09-01T20:57:52;17.14;50.65
66740;DHT22;53653;52.188;8.602;2022-09-01T21:00:25;17.07;50.85
66740;DHT22;53653;52.188;8.602;2022-09-01T21:19:52;16.65;52.48
66740;DHT22;53653;52.188;8.602;2022-09-01T21:22:19;16.60;52.59
66740;DHT22;53653;52.188;8.602;2022-09-01T21:24:45;16.62;52.62
66740;DHT22;53653;52.188;8.602;2022-09-01T21:27:15;16.55;52.88
66740;DHT22;53653;52.188;8.602;2022-09-01T21:30:00;16.51;53.06
66740;DHT22;53653;52.188;8.602;2022-09-01T21:32:30;16.42;53.27
66740;DHT22;53653;52.188;8.602;2022-09-01T21:34:56;16.44;53.39
66740;DHT22;53653;52.188;8.602;2022-09-01T21:37:22;16.35;53.68
66740;DHT22;53653;52.188;8.602;2022-09-01T21:39:49;16.28;53.95
66740;DHT22;53653;52.188;8.602;2022-09-01T21:42:18;16.25;54.02
66740;DHT22;53653;52.188;8.602;2022-09-01T21:44:44;16.20;54.25
66740;DHT22;53653;52.188;8.602;2022-09-01T21:47:10;16.20;54.31
66740;DHT22;53653;52.188;8.602;2022-09-01T21:50:01;16.22;54.22
66740;DHT22;53653;52.188;8.602;2022-09-01T21:52:27;16.20;54.38
66740;DHT22;53653;52.188;8.602;2022-09-01T21:54:53;16.15;54.47
66740;DHT22;53653;52.188;8.602;2022-09-01T21:57:18;16.10;54.58
66740;DHT22;53653;52.188;8.602;2022-09-01T21:59:46;16.05;54.81
66740;DHT22;53653;52.188;8.602;2022-09-01T22:02:12;16.02;54.94
66740;DHT22;53653;52.188;8.602;2022-09-01T22:04:38;16.00;55.26
66740;DHT22;53653;52.188;8.602;2022-09-01T22:07:04;15.98;55.23
66740;DHT22;53653;52.188;8.602;2022-09-01T22:09:30;15.97;55.39
66740;DHT22;53653;52.188;8.602;2022-09-01T22:11:55;15.97;55.47
66740;DHT22;53653;52.188;8.602;2022-09-01T22:14:21;15.91;55.67
66740;DHT22;53653;52.188;8.602;2022-09-01T22:16:47;15.91;55.74
66740;DHT22;53653;52.188;8.602;2022-09-01T22:19:13;15.83;55.94
66740;DHT22;53653;52.188;8.602;2022-09-01T22:21:39;15.77;56.17
66740;DHT22;53653;52.188;8.602;2022-09-01T22:24:06;15.74;56.34
66740;DHT22;53653;52.188;8.602;2022-09-01T22:26:32;15.67;56.57
66740;DHT22;53653;52.188;8.602;2022-09-01T22:28:59;15.64;56.73
66740;DHT22;53653;52.188;8.602;2022-09-01T22:31:27;15.66;56.94
66740;DHT22;53653;52.188;8.602;2022-09-01T22:33:52;15.64;56.96
66740;DHT22;53653;52.188;8.602;2022-09-01T22:36:30;15.60;57.23
66740;DHT22;53653;52.188;8.602;2022-09-01T22:38:56;15.59;57.33
66740;DHT22;53653;52.188;8.602;2022-09-01T22:41:24;15.53;57.56
66740;DHT22;53653;52.188;8.602;2022-09-01T22:43:50;15.47;57.86
66740;DHT22;53653;52.188;8.602;2022-09-01T22:46:17;15.43;57.90
66740;DHT22;53653;52.188;8.602;2022-09-01T22:48:44;15.38;58.20
66740;DHT22;53653;52.188;8.602;2022-09-01T22:51:10;15.38;58.33
66740;DHT22;53653;52.188;8.602;2022-09-01T22:53:38;15.38;58.34
66740;DHT22;53653;52.188;8.602;2022-09-01T22:56:12;15.42;58.40
66740;DHT22;53653;52.188;8.602;2022-09-01T22:58:38;15.36;58.59
66740;DHT22;53653;52.188;8.602;2022-09-01T23:01:09;15.32;58.69
66740;DHT22;53653;52.188;8.602;2022-09-01T23:03:35;15.29;58.83
66740;DHT22;53653;52.188;8.602;2022-09-01T23:06:06;15.29;58.89
66740;DHT22;53653;52.188;8.602;2022-09-01T23:08:33;15.26;59.01
66740;DHT22;53653;52.188;8.602;2022-09-01T23:10:59;15.26;59.01
66740;DHT22;53653;52.188;8.602;2022-09-01T23:13:24;15.26;59.13
66740;DHT22;53653;52.188;8.602;2022-09-01T23:15:53;15.22;59.25
66740;DHT22;53653;52.188;8.602;2022-09-01T23:18:20;15.19;59.36
66740;DHT22;53653;52.188;8.602;2022-09-01T23:20:45;15.16;59.44
66740;DHT22;53653;52.188;8.602;2022-09-01T23:23:10;15.15;59.50
66740;DHT22;53653;52.188;8.602;2022-09-01T23:25:38;15.06;59.79
66740;DHT22;53653;52.188;8.602;2022-09-01T23:28:06;14.99;60.19
66740;DHT22;53653;52.188;8.602;2022-09-01T23:30:34;14.98;60.24
66740;DHT22;53653;52.188;8.602;2022-09-01T23:33:00;14.98;60.31
66740;DHT22;53653;52.188;8.602;2022-09-01T23:35:25;14.92;60.41
66740;DHT22;53653;52.188;8.602;2022-09-01T23:37:51;14.92;60.40
66740;DHT22;53653;52.188;8.602;2022-09-01T23:40:16;14.92;60.51
66740;DHT22;53653;52.188;8.602;2022-09-01T23:42:42;14.91;60.63
66740;DHT22;53653;52.188;8.602;2022-09-01T23:45:08;14.81;60.95
66740;DHT22;53653;52.188;8.602;2022-09-01T23:47:34;14.78;61.04
66740;DHT22;53653;52.188;8.602;2022-09-01T23:49:59;14.70;61.25
66740;DHT22;53653;52.188;8.602;2022-09-01T23:52:26;14.74;61.35
66740;DHT22;53653;52.188;8.602;2022-09-01T23:54:52;14.68;61.58
66740;DHT22;53653;52.188;8.602;2022-09-01T23:57:19;14.64;61.71
66740;DHT22;53653;52.188;8.602;2022-09-01T23:59:45;14.61;61.83
